createdAt,value
2023-02-13T00:00:55.797Z,6.70
2023-02-13T00:03:25.168Z,6.69
2023-02-13T00:05:52.930Z,6.67
2023-02-13T00:08:20.681Z,6.66
2023-02-13T00:10:48.603Z,6.68
2023-02-13T00:13:16.391Z,6.68
2023-02-13T00:15:44.182Z,6.67
2023-02-13T00:18:12.344Z,6.66
2023-02-13T00:20:41.469Z,6.66
2023-02-13T00:23:09.224Z,6.65
2023-02-13T00:25:36.958Z,6.65
2023-02-13T00:28:04.751Z,6.66
2023-02-13T00:30:32.462Z,6.63
2023-02-13T00:33:00.224Z,6.63
2023-02-13T00:35:27.989Z,6.63
2023-02-13T00:37:57.072Z,6.65
2023-02-13T00:40:25.069Z,6.65
2023-02-13T00:42:52.806Z,6.63
2023-02-13T00:45:20.568Z,6.60
2023-02-13T00:47:48.309Z,6.57
2023-02-13T00:50:16.148Z,6.60
2023-02-13T00:52:43.913Z,6.61
2023-02-13T00:55:13.005Z,6.59
2023-02-13T00:57:40.684Z,6.62
2023-02-13T01:00:10.644Z,6.61
2023-02-13T01:02:38.520Z,6.63
2023-02-13T01:05:06.761Z,6.65
2023-02-13T01:07:34.491Z,6.66
2023-02-13T01:10:02.315Z,6.63
2023-02-13T01:12:31.415Z,6.65
2023-02-13T01:14:59.287Z,6.61
2023-02-13T01:17:27.050Z,6.62
2023-02-13T01:19:55.100Z,6.64
2023-02-13T01:22:22.839Z,6.64
2023-02-13T01:24:50.768Z,6.64
2023-02-13T01:27:18.556Z,6.67
2023-02-13T01:29:47.656Z,6.67
2023-02-13T01:32:15.667Z,6.66
2023-02-13T01:34:43.417Z,6.66
2023-02-13T01:37:11.113Z,6.67
2023-02-13T01:39:38.917Z,6.67
2023-02-13T01:42:07.556Z,6.66
2023-02-13T01:44:53.556Z,6.62
2023-02-13T01:47:27.403Z,6.62
2023-02-13T01:50:04.801Z,6.63
2023-02-13T01:52:33.070Z,6.64
2023-02-13T01:55:01.067Z,6.59
2023-02-13T01:57:32.443Z,6.60
2023-02-13T02:00:04.657Z,6.62
2023-02-13T02:02:35.911Z,6.61
2023-02-13T02:05:04.508Z,6.64
2023-02-13T02:07:34.079Z,6.61
2023-02-13T02:10:06.254Z,6.58
2023-02-13T02:12:40.064Z,6.58
2023-02-13T02:15:09.553Z,6.58
2023-02-13T02:17:37.397Z,6.61
2023-02-13T02:20:16.081Z,6.60
2023-02-13T02:23:07.766Z,6.59
2023-02-13T02:26:03.369Z,6.61
2023-02-13T02:29:03.423Z,6.61
2023-02-13T02:32:08.452Z,6.61
2023-02-13T02:34:50.070Z,6.62
2023-02-13T02:37:33.317Z,6.62
2023-02-13T02:40:13.303Z,6.60
2023-02-13T02:42:49.006Z,6.61
2023-02-13T02:45:26.574Z,6.61
2023-02-13T02:48:18.132Z,6.60
2023-02-13T02:50:52.629Z,6.59
2023-02-13T02:53:32.725Z,6.57
2023-02-13T02:56:08.211Z,6.56
2023-02-13T02:59:08.785Z,6.57
2023-02-13T03:01:56.305Z,6.59
2023-02-13T03:04:45.250Z,6.59
2023-02-13T03:07:17.215Z,6.59
2023-02-13T03:10:06.108Z,6.59
2023-02-13T03:12:58.207Z,6.59
2023-02-13T03:15:28.304Z,6.57
2023-02-13T03:18:14.907Z,6.54
2023-02-13T03:21:08.970Z,6.53
2023-02-13T03:23:47.316Z,6.55
2023-02-13T03:26:45.700Z,6.55
2023-02-13T03:29:37.810Z,6.55
2023-02-13T03:32:13.435Z,6.50
2023-02-13T03:35:06.945Z,6.50
2023-02-13T03:37:56.683Z,6.51
2023-02-13T03:40:31.566Z,6.52
2023-02-13T03:43:09.457Z,6.50
2023-02-13T03:45:57.249Z,6.51
2023-02-13T03:48:46.154Z,6.50
2023-02-13T03:51:18.375Z,6.50
2023-02-13T03:53:51.970Z,6.49
2023-02-13T03:56:39.938Z,6.48
2023-02-13T03:59:18.726Z,6.48
2023-02-13T04:01:55.256Z,6.46
2023-02-13T04:04:29.844Z,6.47
2023-02-13T04:07:01.240Z,6.44
2023-02-13T04:09:32.668Z,6.43
2023-02-13T04:12:07.510Z,6.44
2023-02-13T04:14:39.447Z,6.40
2023-02-13T04:17:10.884Z,6.39
2023-02-13T04:19:39.209Z,6.40
2023-02-13T04:22:06.974Z,6.42
2023-02-13T04:24:36.060Z,6.40
2023-02-13T04:27:03.887Z,6.42
2023-02-13T04:29:31.650Z,6.37
2023-02-13T04:31:59.426Z,6.36
2023-02-13T04:34:27.262Z,6.37
2023-02-13T04:36:55.024Z,6.40
2023-02-13T04:39:22.717Z,6.42
2023-02-13T04:41:51.788Z,6.41
2023-02-13T04:44:19.524Z,6.47
2023-02-13T04:46:47.241Z,6.45
2023-02-13T04:49:15.109Z,6.43
2023-02-13T04:51:42.895Z,6.43
2023-02-13T04:54:13.786Z,6.46
2023-02-13T04:56:41.522Z,6.45
2023-02-13T04:59:10.641Z,6.45
2023-02-13T05:01:38.416Z,6.42
2023-02-13T05:04:06.302Z,6.43
2023-02-13T05:06:33.954Z,6.43
2023-02-13T05:09:02.861Z,6.45
2023-02-13T05:11:30.658Z,6.42
2023-02-13T05:13:58.391Z,6.45
2023-02-13T05:16:27.519Z,6.45
2023-02-13T05:18:55.282Z,6.46
2023-02-13T05:21:36.911Z,6.47
2023-02-13T05:24:04.829Z,6.46
2023-02-13T05:26:32.684Z,6.46
2023-02-13T05:29:17.666Z,6.47
2023-02-13T05:31:46.946Z,6.49
2023-02-13T05:34:14.802Z,6.49
2023-02-13T05:36:42.608Z,6.50
2023-02-13T05:39:10.521Z,6.48
2023-02-13T05:41:38.238Z,6.48
2023-02-13T05:44:06.122Z,6.49
2023-02-13T05:46:33.936Z,6.47
2023-02-13T05:49:04.846Z,6.46
2023-02-13T05:51:33.034Z,6.47
2023-02-13T05:54:00.806Z,6.48
2023-02-13T05:56:28.776Z,6.48
2023-02-13T05:58:57.543Z,6.50
2023-02-13T06:01:25.730Z,6.50
2023-02-13T06:03:53.555Z,6.51
2023-02-13T06:06:23.397Z,6.52
2023-02-13T06:08:51.140Z,6.50
2023-02-13T06:11:19.144Z,6.49
2023-02-13T06:13:46.946Z,6.50
2023-02-13T06:16:15.202Z,6.50
2023-02-13T06:18:43.044Z,6.50
2023-02-13T06:21:10.848Z,6.51
2023-02-13T06:23:39.924Z,6.50
2023-02-13T06:26:09.701Z,6.48
2023-02-13T06:28:37.517Z,6.45
2023-02-13T06:31:05.732Z,6.45
2023-02-13T06:33:33.562Z,6.42
2023-02-13T06:36:01.348Z,6.41
2023-02-13T06:38:29.139Z,6.36
2023-02-13T06:41:01.937Z,6.35
2023-02-13T06:43:29.711Z,6.33
2023-02-13T06:45:57.472Z,6.31
2023-02-13T06:48:25.355Z,6.27
2023-02-13T06:50:53.119Z,6.25
2023-02-13T06:53:25.076Z,6.23
2023-02-13T06:55:54.019Z,6.21
2023-02-13T06:58:24.763Z,6.20
2023-02-13T07:00:53.356Z,6.16
2023-02-13T07:03:21.172Z,6.15
2023-02-13T07:05:51.978Z,6.11
2023-02-13T07:08:19.902Z,6.07
2023-02-13T07:10:47.657Z,6.05
2023-02-13T07:13:15.427Z,6.03
2023-02-13T07:15:44.861Z,5.99
2023-02-13T07:18:12.605Z,5.94
2023-02-13T07:20:40.344Z,5.93
2023-02-13T07:23:08.128Z,5.93
2023-02-13T07:25:36.005Z,5.91
2023-02-13T07:28:04.658Z,5.89
2023-02-13T07:30:32.841Z,5.89
2023-02-13T07:33:03.213Z,5.87
2023-02-13T07:35:36.835Z,5.86
2023-02-13T07:38:05.011Z,5.84
2023-02-13T07:40:32.737Z,5.84
2023-02-13T07:43:02.002Z,5.81
2023-02-13T07:45:29.816Z,5.79
2023-02-13T07:47:57.811Z,5.79
2023-02-13T07:50:27.538Z,5.78
2023-02-13T07:52:55.796Z,5.78
2023-02-13T07:55:23.918Z,5.76
2023-02-13T07:57:52.197Z,5.77
2023-02-13T08:00:21.265Z,5.76
2023-02-13T08:02:49.499Z,5.76
2023-02-13T08:05:17.548Z,5.76
2023-02-13T08:07:46.628Z,5.77
2023-02-13T08:10:33.188Z,5.78
2023-02-13T08:13:01.458Z,5.75
2023-02-13T08:15:29.204Z,5.77
2023-02-13T08:17:57.090Z,5.77
2023-02-13T08:20:25.077Z,5.78
2023-02-13T08:22:54.173Z,5.79
2023-02-13T08:25:21.950Z,5.82
2023-02-13T08:27:49.662Z,5.81
2023-02-13T08:30:17.737Z,5.85
2023-02-13T08:32:54.429Z,5.87
2023-02-13T08:35:22.789Z,5.90
2023-02-13T08:37:50.600Z,5.93
2023-02-13T08:40:19.954Z,5.93
2023-02-13T08:42:47.708Z,5.95
2023-02-13T08:45:15.587Z,6.00
2023-02-13T08:47:43.332Z,6.03
2023-02-13T08:50:11.824Z,6.08
2023-02-13T08:52:39.598Z,6.13
2023-02-13T08:55:07.693Z,6.18
2023-02-13T08:57:36.820Z,6.24
2023-02-13T09:00:05.996Z,6.26
2023-02-13T09:02:33.782Z,6.29
2023-02-13T09:05:01.542Z,6.33
2023-02-13T09:07:29.391Z,6.39
2023-02-13T09:09:57.077Z,6.40
2023-02-13T09:12:24.880Z,6.45
2023-02-13T09:14:54.016Z,6.49
2023-02-13T09:17:21.738Z,6.55
2023-02-13T09:19:49.466Z,6.62
2023-02-13T09:22:17.624Z,6.64
2023-02-13T09:24:45.395Z,6.69
2023-02-13T09:27:13.181Z,6.70
2023-02-13T09:29:40.970Z,6.75
2023-02-13T09:32:10.224Z,6.80
2023-02-13T09:34:38.010Z,6.85
2023-02-13T09:37:05.758Z,6.92
2023-02-13T09:39:33.509Z,6.96
2023-02-13T09:42:02.336Z,7.00
2023-02-13T09:44:35.409Z,7.08
2023-02-13T09:47:07.482Z,7.16
2023-02-13T09:49:39.977Z,7.22
2023-02-13T09:52:11.207Z,7.33
2023-02-13T09:54:39.193Z,7.41
2023-02-13T09:57:16.543Z,7.48
2023-02-13T09:59:57.099Z,7.57
2023-02-13T10:02:45.981Z,7.66
2023-02-13T10:05:30.331Z,7.77
2023-02-13T10:08:07.348Z,7.81
2023-02-13T10:10:46.201Z,7.81
2023-02-13T10:13:29.952Z,7.87
2023-02-13T10:16:05.486Z,7.97
2023-02-13T10:18:44.057Z,8.02
2023-02-13T10:21:15.101Z,8.10
2023-02-13T10:23:47.293Z,8.18
2023-02-13T10:26:21.019Z,8.25
2023-02-13T10:29:14.306Z,8.31
2023-02-13T10:31:45.073Z,8.41
2023-02-13T10:34:16.574Z,8.47
2023-02-13T10:36:48.055Z,8.50
2023-02-13T10:39:24.780Z,8.56
2023-02-13T10:41:57.987Z,8.62
2023-02-13T10:44:44.258Z,8.72
2023-02-13T10:47:22.857Z,8.81
2023-02-13T10:50:01.332Z,8.85
2023-02-13T10:52:40.456Z,8.92
2023-02-13T10:55:24.218Z,8.99
2023-02-13T10:58:07.735Z,9.08
2023-02-13T11:00:40.197Z,9.17
2023-02-13T11:03:18.820Z,9.28
2023-02-13T11:05:46.689Z,9.35
2023-02-13T11:08:19.857Z,9.41
2023-02-13T11:10:47.890Z,9.46
2023-02-13T11:13:18.901Z,9.48
2023-02-13T11:16:04.340Z,9.52
2023-02-13T11:18:35.522Z,9.55
2023-02-13T11:21:09.016Z,9.57
2023-02-13T11:23:43.483Z,9.66
2023-02-13T11:26:15.293Z,9.75
2023-02-13T11:28:51.095Z,9.82
2023-02-13T11:31:30.305Z,9.87
2023-02-13T11:33:59.414Z,9.94
2023-02-13T11:36:30.234Z,9.99
2023-02-13T11:39:06.227Z,10.04
2023-02-13T11:41:41.772Z,10.08
2023-02-13T11:44:23.014Z,10.15
2023-02-13T11:46:52.960Z,10.22
2023-02-13T11:49:23.291Z,10.25
2023-02-13T11:51:53.556Z,10.33
2023-02-13T11:54:34.327Z,10.38
2023-02-13T11:57:05.848Z,10.37
2023-02-13T11:59:41.603Z,10.43
2023-02-13T12:02:19.285Z,10.51
2023-02-13T12:04:48.648Z,10.54
2023-02-13T12:07:21.234Z,10.57
2023-02-13T12:09:55.135Z,10.57
2023-02-13T12:12:30.088Z,10.57
2023-02-13T12:14:59.480Z,10.58
2023-02-13T12:17:32.487Z,10.63
2023-02-13T12:20:01.191Z,10.70
2023-02-13T12:22:39.275Z,10.78
2023-02-13T12:25:29.300Z,10.81
2023-02-13T12:28:11.895Z,10.86
2023-02-13T12:31:20.577Z,10.93
2023-02-13T12:34:23.919Z,10.95
2023-02-13T12:37:09.797Z,11.01
2023-02-13T12:39:42.340Z,11.06
2023-02-13T12:42:23.307Z,11.07
2023-02-13T12:45:16.005Z,11.04
2023-02-13T12:48:02.799Z,11.04
2023-02-13T12:50:45.430Z,11.04
2023-02-13T12:53:26.077Z,11.10
2023-02-13T12:56:12.896Z,11.15
2023-02-13T12:58:56.725Z,11.19
2023-02-13T13:01:44.428Z,11.21
2023-02-13T13:04:21.959Z,11.19
2023-02-13T13:07:01.284Z,11.20
2023-02-13T13:09:53.099Z,11.20
2023-02-13T13:12:33.532Z,11.16
2023-02-13T13:15:09.070Z,11.13
2023-02-13T13:17:51.020Z,11.13
2023-02-13T13:20:38.772Z,11.09
2023-02-13T13:23:12.434Z,11.10
2023-02-13T13:25:49.516Z,11.14
2023-02-13T13:28:20.541Z,11.16
2023-02-13T13:30:50.394Z,11.19
2023-02-13T13:33:20.859Z,11.18
2023-02-13T13:35:59.646Z,11.13
2023-02-13T13:38:39.728Z,11.12
2023-02-13T13:41:16.119Z,11.15
2023-02-13T13:43:59.263Z,11.10
2023-02-13T13:46:38.704Z,11.05
2023-02-13T13:49:25.866Z,11.04
2023-02-13T13:51:53.629Z,11.05
2023-02-13T13:54:35.486Z,11.07
2023-02-13T13:57:13.625Z,11.02
2023-02-13T14:00:01.995Z,11.03
2023-02-13T14:02:43.591Z,11.02
2023-02-13T14:05:24.299Z,11.02
2023-02-13T14:07:54.020Z,11.00
2023-02-13T14:11:09.510Z,11.00
2023-02-13T14:13:39.526Z,10.97
2023-02-13T14:16:12.149Z,10.93
2023-02-13T14:18:47.883Z,10.89
2023-02-13T14:21:24.726Z,10.88
2023-02-13T14:23:53.844Z,10.88
2023-02-13T14:26:36.615Z,10.86
2023-02-13T14:29:22.470Z,10.86
2023-02-13T14:32:19.186Z,10.83
2023-02-13T14:34:56.996Z,10.84
2023-02-13T14:37:34.550Z,10.84
2023-02-13T14:40:55.867Z,10.80
2023-02-13T14:43:40.523Z,10.78
2023-02-13T14:46:30.923Z,10.78
2023-02-13T14:49:03.120Z,10.76
2023-02-13T14:51:37.172Z,10.74
2023-02-13T14:54:16.629Z,10.73
2023-02-13T14:56:47.554Z,10.73
2023-02-13T14:59:18.389Z,10.73
2023-02-13T15:01:53.363Z,10.72
2023-02-13T15:04:28.282Z,10.68
2023-02-13T15:07:01.302Z,10.68
2023-02-13T15:09:35.740Z,10.70
2023-02-13T15:12:03.542Z,10.72
2023-02-13T15:14:36.190Z,10.72
2023-02-13T15:17:10.213Z,10.71
2023-02-13T15:19:40.595Z,10.73
2023-02-13T15:22:20.463Z,10.72
2023-02-13T15:24:49.749Z,10.71
2023-02-13T15:27:21.954Z,10.72
2023-02-13T15:29:59.058Z,10.70
2023-02-13T15:32:34.392Z,10.72
2023-02-13T15:35:02.202Z,10.72
2023-02-13T15:37:32.001Z,10.71
2023-02-13T15:40:17.166Z,10.72
2023-02-13T15:42:45.074Z,10.71
2023-02-13T15:45:17.564Z,10.72
2023-02-13T15:47:46.545Z,10.69
2023-02-13T15:50:23.609Z,10.68
2023-02-13T15:52:53.205Z,10.68
2023-02-13T15:55:23.945Z,10.66
2023-02-13T15:57:54.747Z,10.66
2023-02-13T16:00:26.421Z,10.65
2023-02-13T16:02:55.843Z,10.65
2023-02-13T16:05:38.974Z,10.64
2023-02-13T16:08:28.200Z,10.62
2023-02-13T16:11:18.139Z,10.61
2023-02-13T16:14:06.029Z,10.58
2023-02-13T16:16:37.698Z,10.59
2023-02-13T16:19:06.007Z,10.58
2023-02-13T16:21:35.925Z,10.58
2023-02-13T16:24:08.447Z,10.56
2023-02-13T16:26:39.225Z,10.54
2023-02-13T16:29:11.503Z,10.52
2023-02-13T16:31:40.878Z,10.51
2023-02-13T16:34:16.020Z,10.48
2023-02-13T16:36:43.946Z,10.45
2023-02-13T16:39:21.667Z,10.40
2023-02-13T16:41:51.413Z,10.38
2023-02-13T16:44:31.255Z,10.35
2023-02-13T16:47:01.512Z,10.32
2023-02-13T16:49:31.761Z,10.28
2023-02-13T16:52:11.696Z,10.24
2023-02-13T16:54:49.939Z,10.18
2023-02-13T16:57:24.555Z,10.10
2023-02-13T17:00:03.983Z,10.05
2023-02-13T17:02:33.733Z,10.01
2023-02-13T17:05:17.680Z,9.93
2023-02-13T17:07:48.269Z,9.87
2023-02-13T17:10:22.478Z,9.82
2023-02-13T17:12:51.827Z,9.77
2023-02-13T17:15:22.652Z,9.74
2023-02-13T17:17:51.654Z,9.72
2023-02-13T17:20:21.782Z,9.68
2023-02-13T17:22:51.356Z,9.63
2023-02-13T17:25:23.622Z,9.59
2023-02-13T17:27:53.049Z,9.55
2023-02-13T17:30:22.925Z,9.52
2023-02-13T17:32:54.931Z,9.47
2023-02-13T17:35:22.698Z,9.43
2023-02-13T17:37:50.448Z,9.41
2023-02-13T17:40:20.123Z,9.38
2023-02-13T17:42:52.693Z,9.34
2023-02-13T17:45:23.593Z,9.30
2023-02-13T17:47:51.338Z,9.29
2023-02-13T17:50:19.573Z,9.23
2023-02-13T17:52:49.111Z,9.18
2023-02-13T17:55:18.596Z,9.12
2023-02-13T17:57:46.427Z,9.08
2023-02-13T18:00:16.242Z,9.04
2023-02-13T18:02:44.246Z,8.99
2023-02-13T18:05:12.535Z,8.95
2023-02-13T18:07:41.535Z,8.91
2023-02-13T18:10:13.231Z,8.90
2023-02-13T18:12:41.562Z,8.85
2023-02-13T18:15:10.245Z,8.80
2023-02-13T18:17:39.668Z,8.78
2023-02-13T18:20:09.674Z,8.74
2023-02-13T18:22:37.635Z,8.69
2023-02-13T18:25:06.710Z,8.66
2023-02-13T18:27:34.599Z,8.61
2023-02-13T18:30:02.553Z,8.58
2023-02-13T18:32:30.409Z,8.54
2023-02-13T18:34:59.650Z,8.51
2023-02-13T18:37:29.436Z,8.46
2023-02-13T18:39:58.003Z,8.42
2023-02-13T18:42:25.951Z,8.42
2023-02-13T18:44:53.776Z,8.40
2023-02-13T18:47:21.558Z,8.38
2023-02-13T18:49:49.334Z,8.35
2023-02-13T18:52:18.506Z,8.31
2023-02-13T18:54:46.289Z,8.29
2023-02-13T18:57:14.229Z,8.26
2023-02-13T18:59:42.008Z,8.23
2023-02-13T19:02:10.997Z,8.21
2023-02-13T19:04:39.192Z,8.17
2023-02-13T19:07:06.948Z,8.15
2023-02-13T19:09:40.253Z,8.12
2023-02-13T19:12:09.077Z,8.09
2023-02-13T19:14:37.174Z,8.08
2023-02-13T19:17:04.962Z,8.03
2023-02-13T19:19:32.746Z,7.99
2023-02-13T19:22:00.500Z,7.94
2023-02-13T19:24:28.241Z,7.90
2023-02-13T19:26:57.409Z,7.85
2023-02-13T19:29:25.308Z,7.82
2023-02-13T19:31:53.447Z,7.78
2023-02-13T19:34:21.194Z,7.72
2023-02-13T19:36:48.931Z,7.68
2023-02-13T19:39:16.869Z,7.61
2023-02-13T19:41:44.673Z,7.57
2023-02-13T19:44:14.081Z,7.52
2023-02-13T19:46:41.939Z,7.47
2023-02-13T19:49:10.713Z,7.43
2023-02-13T19:51:38.642Z,7.40
2023-02-13T19:54:08.405Z,7.35
2023-02-13T19:56:37.862Z,7.31
2023-02-13T19:59:06.848Z,7.28
2023-02-13T20:01:36.037Z,7.26
2023-02-13T20:04:03.825Z,7.23
2023-02-13T20:06:34.970Z,7.20
2023-02-13T20:09:07.305Z,7.14
2023-02-13T20:11:35.115Z,7.11
2023-02-13T20:14:04.826Z,7.05
2023-02-13T20:16:35.494Z,7.00
2023-02-13T20:19:07.537Z,6.95
2023-02-13T20:21:35.608Z,6.92
2023-02-13T20:24:03.936Z,6.86
2023-02-13T20:26:32.134Z,6.81
2023-02-13T20:28:59.979Z,6.79
2023-02-13T20:31:29.926Z,6.72
2023-02-13T20:33:59.046Z,6.67
2023-02-13T20:36:30.213Z,6.62
2023-02-13T20:39:00.217Z,6.57
2023-02-13T20:41:30.797Z,6.52
2023-02-13T20:43:59.878Z,6.46
2023-02-13T20:46:28.133Z,6.42
2023-02-13T20:48:55.897Z,6.38
2023-02-13T20:51:23.646Z,6.34
2023-02-13T20:53:52.711Z,6.32
2023-02-13T20:56:22.187Z,6.27
2023-02-13T20:58:52.185Z,6.23
2023-02-13T21:01:22.451Z,6.19
2023-02-13T21:03:53.770Z,6.14
2023-02-13T21:06:22.410Z,6.12
2023-02-13T21:08:51.823Z,6.08
2023-02-13T21:11:20.366Z,6.04
2023-02-13T21:13:48.702Z,5.99
2023-02-13T21:16:19.084Z,5.95
2023-02-13T21:18:49.215Z,5.92
2023-02-13T21:21:18.306Z,5.87
2023-02-13T21:23:46.457Z,5.83
2023-02-13T21:26:17.580Z,5.79
2023-02-13T21:28:47.320Z,5.77
2023-02-13T21:31:19.260Z,5.74
2023-02-13T21:33:47.162Z,5.70
2023-02-13T21:36:14.875Z,5.67
2023-02-13T21:38:43.008Z,5.63
2023-02-13T21:41:12.876Z,5.59
2023-02-13T21:43:46.472Z,5.57
2023-02-13T21:46:15.907Z,5.58
2023-02-13T21:48:44.138Z,5.58
2023-02-13T21:51:14.034Z,5.56
2023-02-13T21:53:41.963Z,5.53
2023-02-13T21:56:12.802Z,5.53
2023-02-13T21:58:43.465Z,5.51
2023-02-13T22:01:23.915Z,5.45
2023-02-13T22:03:53.413Z,5.41
2023-02-13T22:06:21.933Z,5.39
2023-02-13T22:08:49.782Z,5.35
2023-02-13T22:11:18.652Z,5.32
2023-02-13T22:13:47.778Z,5.27
2023-02-13T22:16:16.558Z,5.23
2023-02-13T22:18:46.162Z,5.21
2023-02-13T22:21:16.238Z,5.18
2023-02-13T22:23:45.738Z,5.14
2023-02-13T22:26:17.754Z,5.12
2023-02-13T22:28:47.712Z,5.09
2023-02-13T22:31:16.909Z,5.07
2023-02-13T22:33:47.633Z,5.04
2023-02-13T22:36:16.751Z,5.02
2023-02-13T22:38:44.900Z,5.02
2023-02-13T22:41:15.389Z,5.03
2023-02-13T22:43:43.543Z,5.03
2023-02-13T22:46:15.516Z,5.04
2023-02-13T22:48:46.036Z,5.04
2023-02-13T22:51:16.128Z,5.04
2023-02-13T22:53:44.696Z,5.04
2023-02-13T22:56:13.311Z,5.00
2023-02-13T22:58:41.296Z,5.01
2023-02-13T23:01:15.260Z,5.00
2023-02-13T23:03:43.350Z,4.98
2023-02-13T23:06:12.977Z,4.94
2023-02-13T23:08:40.903Z,4.90
2023-02-13T23:11:27.764Z,4.88
2023-02-13T23:13:55.668Z,4.84
2023-02-13T23:16:24.737Z,4.81
2023-02-13T23:18:52.858Z,4.80
2023-02-13T23:21:21.195Z,4.78
2023-02-13T23:23:49.162Z,4.77
2023-02-13T23:26:17.039Z,4.75
2023-02-13T23:28:44.901Z,4.73
2023-02-13T23:31:12.773Z,4.72
2023-02-13T23:33:41.939Z,4.72
2023-02-13T23:36:09.836Z,4.71
2023-02-13T23:38:37.545Z,4.71
2023-02-13T23:41:09.082Z,4.71
2023-02-13T23:43:37.436Z,4.69
2023-02-13T23:46:06.318Z,4.69
2023-02-13T23:48:34.931Z,4.68
2023-02-13T23:51:04.112Z,4.68
2023-02-13T23:53:31.928Z,4.64
2023-02-13T23:55:59.662Z,4.64
2023-02-13T23:58:27.418Z,4.62
